Time;durP1;ratioP1;P1;durP2;ratioP2;P2;SDS_P1;SDS_P2;PMS_P1;PMS_P2;Temp;Humidity;BMP_temperature;BMP_pressure;BME280_temperature;BME280_humidity;BME280_pressure;Samples;Min_cycle;Max_cycle;Signal;HPM_P1;HPM_P2
2022/03/31 00:02:09;;;;;;;11.65;8.00;;;3.90;99.90;;;;;;5033849;28;20868;-82
2022/03/31 00:04:36;;;;;;;9.25;7.97;;;3.80;99.90;;;;;;5034929;28;20377;-83
2022/03/31 00:07:02;;;;;;;12.05;7.50;;;3.80;99.90;;;;;;5032857;28;20400;-84
2022/03/31 00:09:27;;;;;;;9.45;8.25;;;3.80;99.90;;;;;;5032456;28;20713;-83
2022/03/31 00:11:53;;;;;;;9.53;7.57;;;3.80;99.90;;;;;;5034206;28;20705;-83
2022/03/31 00:14:19;;;;;;;11.23;7.87;;;3.70;99.90;;;;;;5030980;28;20381;-83
2022/03/31 00:16:44;;;;;;;10.20;8.43;;;3.60;99.90;;;;;;5028845;28;20403;-82
2022/03/31 00:19:10;;;;;;;10.20;7.78;;;3.60;99.90;;;;;;5031354;28;20401;-82
2022/03/31 00:21:35;;;;;;;9.93;7.85;;;3.50;99.90;;;;;;5031085;28;20745;-82
2022/03/31 00:24:01;;;;;;;11.27;7.83;;;3.60;99.90;;;;;;5028955;28;20417;-82
2022/03/31 00:26:26;;;;;;;11.17;7.90;;;3.50;99.90;;;;;;5030670;28;20451;-83
2022/03/31 00:28:52;;;;;;;9.93;7.53;;;3.30;99.90;;;;;;5029780;28;20377;-83
2022/03/31 00:31:18;;;;;;;9.05;7.15;;;3.40;99.90;;;;;;5029929;28;20386;-82
2022/03/31 00:33:44;;;;;;;9.60;7.40;;;3.30;99.90;;;;;;5030943;28;20461;-83
2022/03/31 00:36:12;;;;;;;8.25;7.40;;;3.20;99.90;;;;;;5030996;28;20369;-85
2022/03/31 00:38:38;;;;;;;9.13;7.50;;;3.20;99.90;;;;;;5030464;28;20828;-84
2022/03/31 00:41:03;;;;;;;11.37;7.57;;;3.10;99.90;;;;;;5029202;28;20496;-83
2022/03/31 00:43:29;;;;;;;11.57;7.37;;;3.10;99.90;;;;;;5029700;28;20489;-83
2022/03/31 00:45:56;;;;;;;11.82;7.30;;;3.00;99.90;;;;;;5030135;28;20389;-83
2022/03/31 00:48:22;;;;;;;9.60;7.22;;;3.00;99.90;;;;;;5029307;28;20435;-83
2022/03/31 00:50:49;;;;;;;10.05;6.85;;;3.00;99.90;;;;;;5029306;28;20378;-83
2022/03/31 00:53:16;;;;;;;10.38;6.90;;;3.00;99.90;;;;;;5030397;28;20947;-83
2022/03/31 00:55:47;;;;;;;10.40;7.30;;;3.00;99.90;;;;;;5029258;28;20374;-82
2022/03/31 00:58:14;;;;;;;9.85;6.82;;;2.90;99.90;;;;;;5029136;28;20567;-83
2022/03/31 01:00:39;;;;;;;9.23;7.10;;;3.00;99.90;;;;;;5029859;28;20440;-83
2022/03/31 01:03:05;;;;;;;11.10;6.80;;;2.90;99.90;;;;;;5030255;28;20393;-83
2022/03/31 01:05:31;;;;;;;10.77;7.47;;;3.00;99.90;;;;;;5030444;28;20407;-83
2022/03/31 01:07:56;;;;;;;9.30;7.10;;;2.80;99.90;;;;;;5029065;28;20456;-83
2022/03/31 01:10:22;;;;;;;10.20;7.25;;;2.80;99.90;;;;;;5045700;28;20744;-83
2022/03/31 01:12:47;;;;;;;9.82;6.68;;;2.80;99.90;;;;;;5033281;28;20382;-83
2022/03/31 01:15:20;;;;;;;9.18;6.75;;;2.90;99.90;;;;;;5033227;28;20378;-82
2022/03/31 01:17:48;;;;;;;8.25;7.00;;;2.80;99.90;;;;;;5033755;28;20453;-82
2022/03/31 01:20:21;;;;;;;7.72;6.63;;;2.90;99.90;;;;;;5032740;28;20457;-83
2022/03/31 01:22:51;;;;;;;9.60;7.05;;;2.70;99.90;;;;;;5034122;28;20411;-82
2022/03/31 01:25:18;;;;;;;9.88;6.78;;;2.80;99.90;;;;;;5032531;28;20385;-83
2022/03/31 01:27:45;;;;;;;9.85;6.45;;;2.80;99.90;;;;;;5033695;28;20377;-83
2022/03/31 01:30:17;;;;;;;9.20;6.63;;;2.70;99.90;;;;;;5049561;28;20384;-82
2022/03/31 01:32:45;;;;;;;9.77;6.47;;;2.70;99.90;;;;;;5034303;28;20406;-83
2022/03/31 01:35:12;;;;;;;9.43;6.40;;;2.60;99.90;;;;;;5035574;28;20385;-85
2022/03/31 01:37:37;;;;;;;10.70;6.93;;;2.60;99.90;;;;;;5034941;28;20444;-83
2022/03/31 01:40:04;;;;;;;8.80;6.47;;;2.50;99.90;;;;;;5033787;28;20409;-83
2022/03/31 01:42:34;;;;;;;7.93;6.30;;;2.50;99.90;;;;;;5033859;28;20488;-84
2022/03/31 01:45:00;;;;;;;9.18;6.43;;;2.50;99.90;;;;;;5032072;28;20388;-81
2022/03/31 01:47:26;;;;;;;7.80;6.10;;;2.40;99.90;;;;;;5032020;28;20381;-84
2022/03/31 01:49:52;;;;;;;8.80;6.43;;;2.40;99.90;;;;;;5037335;28;20412;-83
2022/03/31 01:52:17;;;;;;;7.25;6.15;;;2.40;99.90;;;;;;5038448;28;20400;-82
2022/03/31 01:54:43;;;;;;;12.03;7.00;;;2.30;99.90;;;;;;5036265;28;20897;-83
2022/03/31 01:57:09;;;;;;;9.43;6.73;;;2.20;99.90;;;;;;5035831;28;20846;-82
2022/03/31 01:59:43;;;;;;;8.53;6.43;;;2.20;99.90;;;;;;5036527;28;20408;-84
2022/03/31 02:02:12;;;;;;;9.40;6.63;;;2.20;99.90;;;;;;5037718;28;20421;-83
2022/03/31 02:04:38;;;;;;;8.38;6.53;;;2.10;99.90;;;;;;5038241;28;20406;-83
2022/03/31 02:07:04;;;;;;;9.30;5.97;;;2.10;99.90;;;;;;5035140;28;20872;-83
2022/03/31 02:09:29;;;;;;;8.70;6.43;;;2.00;99.90;;;;;;5035170;28;20388;-83
2022/03/31 02:11:58;;;;;;;9.52;5.90;;;2.00;99.90;;;;;;5034946;28;20797;-82
2022/03/31 02:14:26;;;;;;;7.13;6.30;;;1.80;99.90;;;;;;5032584;28;20519;-82
2022/03/31 02:16:52;;;;;;;7.83;6.50;;;2.00;99.90;;;;;;5049064;28;20505;-83
2022/03/31 02:19:18;;;;;;;7.77;5.83;;;1.90;99.90;;;;;;5032367;28;20440;-83
2022/03/31 02:21:44;;;;;;;10.23;6.20;;;2.00;99.90;;;;;;5031901;28;20696;-82
2022/03/31 02:24:11;;;;;;;8.77;6.03;;;1.90;99.90;;;;;;5030633;28;20385;-82
2022/03/31 02:26:37;;;;;;;7.20;6.03;;;1.90;99.90;;;;;;5032810;28;20392;-82
2022/03/31 02:29:03;;;;;;;7.95;5.95;;;1.90;99.90;;;;;;5048216;28;21301;-84
2022/03/31 02:31:30;;;;;;;7.75;6.07;;;1.90;99.90;;;;;;5033448;28;20456;-80
2022/03/31 02:33:56;;;;;;;7.87;6.07;;;1.90;99.90;;;;;;5031677;28;20459;-83
2022/03/31 02:36:22;;;;;;;8.45;5.93;;;1.80;99.90;;;;;;5031432;28;20417;-83
2022/03/31 02:38:48;;;;;;;7.70;5.50;;;1.80;99.90;;;;;;5032450;28;20389;-82
2022/03/31 02:41:14;;;;;;;8.33;5.90;;;1.80;99.90;;;;;;5032827;28;20458;-83
2022/03/31 02:43:40;;;;;;;8.20;5.70;;;1.80;99.90;;;;;;5031127;28;20380;-81
2022/03/31 02:46:05;;;;;;;7.37;5.50;;;1.80;99.90;;;;;;5031342;28;20948;-83
2022/03/31 02:48:31;;;;;;;9.27;5.97;;;1.70;99.90;;;;;;5030899;28;20763;-83
2022/03/31 02:51:00;;;;;;;8.45;5.53;;;1.70;99.90;;;;;;5032808;28;20377;-84
2022/03/31 02:56:09;;;;;;;8.33;5.33;;;1.60;99.90;;;;;;5032915;28;20820;-84
2022/03/31 02:58:35;;;;;;;8.13;5.50;;;1.60;99.90;;;;;;5031866;28;20449;-82
2022/03/31 03:01:01;;;;;;;10.27;6.10;;;1.60;99.90;;;;;;5031103;28;20565;-82
2022/03/31 03:03:28;;;;;;;9.45;5.95;;;1.50;99.90;;;;;;5030760;28;20401;-83
2022/03/31 03:05:57;;;;;;;8.57;5.40;;;1.60;99.90;;;;;;5030808;28;20433;-82
2022/03/31 03:08:25;;;;;;;8.32;5.50;;;1.60;99.90;;;;;;5032319;28;20473;-82
2022/03/31 03:10:51;;;;;;;9.40;6.00;;;1.40;99.90;;;;;;5030991;28;20413;-82
2022/03/31 03:13:17;;;;;;;6.88;5.03;;;1.40;99.90;;;;;;5033450;28;20393;-82
2022/03/31 03:15:43;;;;;;;6.60;5.45;;;1.30;99.90;;;;;;5031840;28;20377;-82
2022/03/31 03:18:08;;;;;;;7.97;5.47;;;1.40;99.90;;;;;;5030398;28;20943;-82
2022/03/31 03:20:34;;;;;;;7.60;5.50;;;1.30;99.90;;;;;;5031671;28;20519;-81
2022/03/31 03:23:00;;;;;;;7.30;5.20;;;1.40;99.90;;;;;;5032529;28;20435;-82
2022/03/31 03:25:25;;;;;;;8.20;5.55;;;1.30;99.90;;;;;;5032389;28;20365;-83
2022/03/31 03:27:52;;;;;;;10.13;5.70;;;1.40;99.90;;;;;;5030760;28;20370;-81
2022/03/31 03:30:18;;;;;;;11.50;5.93;;;1.30;99.90;;;;;;5030240;28;20382;-82
2022/03/31 03:32:45;;;;;;;8.25;5.45;;;1.20;99.90;;;;;;5030834;28;20381;-82
2022/03/31 03:35:12;;;;;;;9.52;6.05;;;1.10;99.90;;;;;;5031060;28;20386;-81
2022/03/31 03:37:39;;;;;;;8.50;5.80;;;1.10;99.90;;;;;;5039230;28;20388;-82
2022/03/31 03:40:06;;;;;;;7.80;6.03;;;1.00;99.90;;;;;;5036717;28;20504;-83
2022/03/31 03:42:33;;;;;;;7.20;5.72;;;1.00;99.90;;;;;;5030278;28;20389;-83
2022/03/31 03:44:59;;;;;;;7.75;6.03;;;0.90;99.90;;;;;;5034712;28;20377;-82
2022/03/31 03:47:25;;;;;;;10.02;5.70;;;0.80;99.90;;;;;;5031456;28;20381;-85
2022/03/31 03:49:51;;;;;;;8.88;5.50;;;0.90;99.90;;;;;;5031588;28;20476;-84
2022/03/31 03:52:17;;;;;;;7.77;5.90;;;0.90;99.90;;;;;;5030539;28;20974;-83
2022/03/31 03:54:43;;;;;;;8.63;6.32;;;0.90;99.90;;;;;;5030423;28;20393;-83
2022/03/31 03:57:09;;;;;;;9.97;6.50;;;0.90;99.90;;;;;;5032092;28;20855;-83
2022/03/31 03:59:35;;;;;;;8.17;5.77;;;0.90;99.90;;;;;;5030426;28;20406;-83
2022/03/31 04:02:01;;;;;;;10.03;6.17;;;0.80;99.90;;;;;;5032215;28;20396;-84
2022/03/31 04:04:29;;;;;;;10.00;5.65;;;0.90;99.90;;;;;;5032663;28;20397;-86
2022/03/31 04:06:55;;;;;;;7.40;5.88;;;0.80;99.90;;;;;;5053839;28;20393;-83
2022/03/31 04:09:21;;;;;;;8.88;5.85;;;0.80;99.90;;;;;;5038686;28;20423;-85
2022/03/31 04:11:46;;;;;;;9.38;5.93;;;0.80;99.90;;;;;;5035814;28;20373;-83
2022/03/31 04:14:12;;;;;;;8.30;6.23;;;0.70;99.90;;;;;;5036690;28;20384;-82
2022/03/31 04:16:38;;;;;;;7.23;5.70;;;0.70;99.90;;;;;;5030832;28;20950;-83
2022/03/31 04:19:07;;;;;;;7.30;5.43;;;0.70;99.90;;;;;;5041251;28;20429;-83
2022/03/31 04:21:35;;;;;;;9.02;6.15;;;0.70;99.90;;;;;;5039559;28;20398;-84
2022/03/31 04:24:00;;;;;;;7.90;5.35;;;0.70;99.90;;;;;;5056666;28;20405;-82
2022/03/31 04:26:27;;;;;;;10.05;5.50;;;0.70;99.90;;;;;;5040374;28;20448;-83
2022/03/31 04:28:53;;;;;;;7.88;5.45;;;0.70;99.90;;;;;;5038669;28;20382;-84
2022/03/31 04:31:19;;;;;;;8.05;5.63;;;0.70;99.90;;;;;;5038230;28;20931;-84
2022/03/31 04:33:44;;;;;;;8.70;5.35;;;0.70;99.90;;;;;;5033428;28;20391;-83
2022/03/31 04:36:10;;;;;;;6.43;5.20;;;0.70;99.90;;;;;;5039669;28;20876;-83
2022/03/31 04:38:36;;;;;;;5.87;4.93;;;0.70;99.90;;;;;;5041888;28;20810;-84
2022/03/31 04:41:01;;;;;;;7.30;5.33;;;0.60;99.90;;;;;;5041537;28;20393;-84
2022/03/31 04:43:27;;;;;;;6.77;4.97;;;0.50;99.90;;;;;;5040938;28;20385;-83
2022/03/31 04:45:53;;;;;;;8.27;5.13;;;0.60;99.90;;;;;;5041416;28;20469;-86
2022/03/31 04:48:19;;;;;;;7.70;5.40;;;0.50;99.90;;;;;;5040519;28;20381;-83
2022/03/31 04:50:45;;;;;;;7.53;5.10;;;0.50;99.90;;;;;;5038861;28;20429;-83
2022/03/31 04:53:12;;;;;;;7.30;4.80;;;0.50;99.90;;;;;;5039550;28;20373;-82
2022/03/31 04:55:41;;;;;;;8.20;4.80;;;0.50;99.90;;;;;;5057787;28;20374;-83
2022/03/31 04:58:07;;;;;;;7.28;5.15;;;0.60;99.90;;;;;;5042620;28;20396;-83
2022/03/31 05:00:33;;;;;;;7.53;4.78;;;0.60;99.90;;;;;;5042550;28;20389;-84
2022/03/31 05:02:59;;;;;;;6.88;4.65;;;0.50;99.90;;;;;;5039088;28;20389;-85
2022/03/31 05:05:26;;;;;;;10.00;5.35;;;0.50;99.90;;;;;;5036632;28;20737;-84
2022/03/31 05:07:51;;;;;;;9.52;5.60;;;0.60;99.90;;;;;;5031484;28;20375;-84
2022/03/31 05:10:18;;;;;;;23.73;6.90;;;0.60;99.90;;;;;;5032236;28;20374;-84
2022/03/31 05:12:44;;;;;;;7.22;4.75;;;0.50;99.90;;;;;;5031206;28;20392;-84
2022/03/31 05:15:11;;;;;;;6.38;4.75;;;0.60;99.90;;;;;;5032064;28;20385;-85
2022/03/31 05:17:37;;;;;;;6.22;4.68;;;0.60;99.90;;;;;;5031385;28;20456;-83
2022/03/31 05:20:09;;;;;;;9.27;4.82;;;0.60;99.90;;;;;;5032222;28;20414;-85
2022/03/31 05:22:36;;;;;;;6.33;4.50;;;0.60;99.90;;;;;;5028733;28;20386;-85
2022/03/31 05:25:04;;;;;;;42.25;8.00;;;0.70;99.90;;;;;;5030814;28;20879;-84
2022/03/31 05:27:30;;;;;;;6.72;5.10;;;0.70;99.90;;;;;;5030167;28;20370;-84
2022/03/31 05:29:57;;;;;;;7.73;4.57;;;0.80;99.90;;;;;;5028932;28;20945;-84
2022/03/31 05:32:23;;;;;;;6.10;4.60;;;0.70;99.90;;;;;;5029468;28;20440;-82
2022/03/31 05:34:49;;;;;;;5.75;4.60;;;0.80;99.90;;;;;;5028904;28;20481;-83
2022/03/31 05:37:17;;;;;;;6.25;4.30;;;0.80;99.90;;;;;;5031351;28;20468;-84
2022/03/31 05:39:46;;;;;;;6.85;4.20;;;0.80;99.90;;;;;;5045709;28;20410;-85
2022/03/31 05:42:12;;;;;;;21.17;6.20;;;0.80;99.90;;;;;;5048537;28;20431;-83
2022/03/31 05:44:37;;;;;;;7.40;4.35;;;0.80;99.90;;;;;;5032328;28;20883;-85
2022/03/31 05:47:03;;;;;;;5.63;4.10;;;0.90;99.90;;;;;;5047110;28;20373;-85
2022/03/31 05:49:29;;;;;;;7.25;4.53;;;0.90;99.90;;;;;;5030756;28;20488;-84
2022/03/31 05:51:55;;;;;;;58.17;10.70;;;1.00;99.90;;;;;;5030847;28;20938;-87
2022/03/31 05:54:20;;;;;;;6.00;4.20;;;1.00;99.90;;;;;;5030544;28;20876;-86
2022/03/31 05:56:46;;;;;;;8.23;4.30;;;1.10;99.90;;;;;;5032077;28;20472;-83
2022/03/31 05:59:13;;;;;;;8.25;4.53;;;1.30;99.90;;;;;;5033560;28;20401;-87
2022/03/31 06:01:38;;;;;;;5.43;3.97;;;1.10;99.90;;;;;;5033550;28;20439;-84
2022/03/31 06:04:04;;;;;;;24.73;6.23;;;1.20;99.90;;;;;;5033738;28;20377;-85
2022/03/31 06:06:30;;;;;;;7.72;4.18;;;1.30;99.90;;;;;;5033210;28;20394;-84
2022/03/31 06:08:55;;;;;;;6.00;4.43;;;1.30;99.90;;;;;;5033725;28;20389;-83
2022/03/31 06:11:21;;;;;;;11.70;4.63;;;1.30;99.90;;;;;;5035235;28;20828;-85
2022/03/31 06:13:47;;;;;;;10.37;4.23;;;1.50;99.90;;;;;;5032666;28;20382;-83
2022/03/31 06:16:12;;;;;;;6.93;4.70;;;1.60;99.90;;;;;;5032378;28;20373;-84
2022/03/31 06:18:38;;;;;;;6.30;4.20;;;1.60;99.90;;;;;;5033756;28;20496;-86
2022/03/31 06:21:04;;;;;;;12.83;4.57;;;1.70;99.90;;;;;;5031507;28;20887;-85
2022/03/31 06:23:29;;;;;;;5.38;3.72;;;1.90;99.90;;;;;;5048651;28;20891;-85
2022/03/31 06:25:56;;;;;;;5.57;4.20;;;2.00;99.90;;;;;;5035743;28;20388;-85
2022/03/31 06:28:23;;;;;;;14.13;4.80;;;2.10;99.90;;;;;;5051481;28;20438;-86
2022/03/31 06:30:52;;;;;;;11.50;4.60;;;2.10;99.90;;;;;;5051501;28;20388;-85
2022/03/31 06:33:18;;;;;;;6.00;4.20;;;2.20;99.90;;;;;;5052911;28;20467;-86
2022/03/31 06:35:44;;;;;;;7.07;4.13;;;2.20;99.90;;;;;;5052733;28;20431;-83
2022/03/31 06:38:11;;;;;;;14.18;4.47;;;2.30;99.90;;;;;;5051045;28;20902;-84
2022/03/31 06:40:38;;;;;;;6.78;4.43;;;2.40;99.90;;;;;;5050787;28;20388;-85
2022/03/31 06:43:05;;;;;;;6.40;4.15;;;2.30;99.90;;;;;;5051757;28;20383;-84
2022/03/31 06:45:31;;;;;;;6.93;4.30;;;2.30;99.90;;;;;;5051553;28;20387;-83
2022/03/31 06:47:59;;;;;;;8.02;4.20;;;2.40;99.90;;;;;;5052256;28;20395;-83
2022/03/31 06:50:25;;;;;;;6.10;4.15;;;2.60;99.90;;;;;;5051996;28;20877;-83
2022/03/31 06:52:52;;;;;;;7.05;3.88;;;2.70;99.90;;;;;;5051988;28;20379;-84
2022/03/31 06:55:20;;;;;;;7.03;4.50;;;2.80;99.80;;;;;;5052153;28;20388;-83
2022/03/31 06:57:46;;;;;;;7.53;4.63;;;2.70;99.90;;;;;;5052314;28;20937;-86
2022/03/31 07:00:12;;;;;;;6.60;4.03;;;2.80;99.90;;;;;;5052037;28;20503;-84
2022/03/31 07:02:38;;;;;;;7.35;4.63;;;2.90;99.90;;;;;;5053615;28;20399;-82
2022/03/31 07:05:04;;;;;;;7.13;4.13;;;3.10;99.80;;;;;;5054091;28;20368;-83
2022/03/31 07:07:30;;;;;;;8.57;4.72;;;3.20;99.40;;;;;;5055196;28;20433;-86
2022/03/31 07:09:57;;;;;;;5.37;4.10;;;3.20;99.10;;;;;;5068023;28;20376;-85
2022/03/31 07:12:23;;;;;;;18.08;6.38;;;3.20;99.10;;;;;;5061473;28;20443;-84
2022/03/31 07:14:48;;;;;;;6.40;4.50;;;3.00;99.00;;;;;;5062235;28;20406;-84
2022/03/31 07:17:14;;;;;;;5.53;4.30;;;2.90;99.60;;;;;;5060805;28;20802;-84
2022/03/31 07:19:40;;;;;;;15.77;5.30;;;2.90;99.50;;;;;;5060263;28;20841;-83
2022/03/31 07:22:05;;;;;;;8.02;4.65;;;3.10;99.40;;;;;;5057442;28;20399;-84
2022/03/31 07:24:31;;;;;;;7.10;4.60;;;3.30;99.20;;;;;;5056713;28;20434;-83
2022/03/31 07:26:57;;;;;;;15.90;5.40;;;3.60;98.80;;;;;;5059057;28;20379;-84
2022/03/31 07:29:23;;;;;;;7.80;5.07;;;3.60;98.20;;;;;;5060748;28;20382;-84
2022/03/31 07:31:49;;;;;;;13.15;5.30;;;3.60;98.30;;;;;;5057225;28;20412;-82
2022/03/31 07:34:14;;;;;;;7.80;4.80;;;3.60;98.40;;;;;;5058067;28;20437;-86
2022/03/31 07:36:40;;;;;;;6.90;4.50;;;3.80;97.90;;;;;;5058887;28;20769;-84
2022/03/31 07:39:08;;;;;;;9.43;5.07;;;3.70;98.00;;;;;;5056193;28;20498;-84
2022/03/31 07:41:33;;;;;;;7.90;4.90;;;3.60;98.00;;;;;;5057550;28;20477;-85
2022/03/31 07:44:01;;;;;;;12.05;5.10;;;3.60;98.00;;;;;;5059863;28;20396;-84
2022/03/31 07:46:32;;;;;;;8.95;4.80;;;3.60;98.00;;;;;;5060522;28;20410;-85
2022/03/31 07:48:58;;;;;;;9.15;4.60;;;3.80;97.60;;;;;;5060313;28;20394;-83
2022/03/31 07:51:25;;;;;;;76.00;10.87;;;3.70;97.30;;;;;;5059663;28;20499;-84
2022/03/31 07:53:51;;;;;;;15.55;5.40;;;3.80;97.40;;;;;;5056340;28;20972;-83
2022/03/31 07:56:16;;;;;;;8.17;4.53;;;3.90;97.30;;;;;;5058416;28;20388;-84
2022/03/31 07:58:42;;;;;;;7.77;5.17;;;3.80;97.20;;;;;;5058285;28;20395;-84
2022/03/31 08:01:08;;;;;;;7.43;4.50;;;3.80;96.90;;;;;;5061156;28;20380;-85
2022/03/31 08:03:34;;;;;;;7.53;4.67;;;3.80;97.30;;;;;;5056293;28;20862;-86
2022/03/31 08:06:00;;;;;;;7.00;4.95;;;4.10;97.30;;;;;;5056540;28;20885;-83
2022/03/31 08:08:25;;;;;;;6.93;4.90;;;4.20;96.80;;;;;;5051485;28;20384;-85
2022/03/31 08:10:51;;;;;;;6.00;4.57;;;4.40;96.60;;;;;;5054955;28;20450;-87
2022/03/31 08:13:28;;;;;;;9.35;4.88;;;4.40;96.20;;;;;;5054653;28;20415;-83
2022/03/31 08:15:55;;;;;;;7.68;4.72;;;4.40;96.50;;;;;;5054775;28;20400;-86
2022/03/31 08:18:28;;;;;;;8.40;4.95;;;4.50;96.00;;;;;;5049530;28;20392;-84
2022/03/31 08:20:55;;;;;;;15.02;5.80;;;4.50;95.80;;;;;;5048644;28;20826;-85
2022/03/31 08:23:21;;;;;;;31.83;7.00;;;4.70;96.10;;;;;;5050357;28;20395;-85
2022/03/31 08:25:47;;;;;;;32.67;6.78;;;4.60;95.70;;;;;;5050599;28;20376;-85
2022/03/31 08:28:13;;;;;;;9.65;5.78;;;4.80;95.60;;;;;;5051169;28;20428;-86
2022/03/31 08:30:41;;;;;;;54.37;9.37;;;4.90;95.40;;;;;;5050172;28;20746;-85
2022/03/31 08:33:07;;;;;;;6.97;4.68;;;4.90;95.00;;;;;;5049580;28;20380;-87
2022/03/31 08:35:32;;;;;;;7.63;5.07;;;4.80;94.70;;;;;;5049575;28;20900;-84
2022/03/31 08:37:58;;;;;;;9.23;4.82;;;4.90;94.70;;;;;;5050901;28;20399;-87
2022/03/31 08:40:25;;;;;;;8.43;4.95;;;5.00;94.70;;;;;;5051331;28;20912;-86
2022/03/31 08:42:53;;;;;;;6.83;4.50;;;4.80;94.40;;;;;;5051594;28;20825;-85
2022/03/31 08:45:20;;;;;;;8.65;4.75;;;4.80;94.50;;;;;;5051600;28;20386;-84
2022/03/31 08:47:49;;;;;;;12.27;5.10;;;4.90;94.50;;;;;;5049985;28;20395;-86
2022/03/31 08:50:15;;;;;;;7.38;4.32;;;4.80;94.30;;;;;;5065576;28;20387;-86
2022/03/31 08:52:42;;;;;;;7.60;4.88;;;4.80;94.80;;;;;;5053295;28;20459;-85
2022/03/31 08:55:11;;;;;;;19.08;5.50;;;4.90;94.10;;;;;;5055277;28;20394;-84
2022/03/31 08:57:46;;;;;;;7.22;4.45;;;5.00;94.00;;;;;;5052784;28;20433;-88
2022/03/31 09:00:13;;;;;;;8.00;4.37;;;5.10;93.90;;;;;;5069048;28;20487;-87
2022/03/31 09:02:52;;;;;;;7.65;4.22;;;5.20;93.90;;;;;;5074040;28;20419;-86
2022/03/31 09:05:18;;;;;;;7.57;4.30;;;5.20;93.60;;;;;;5071368;28;20395;-86
2022/03/31 09:08:00;;;;;;;5.90;4.43;;;5.30;93.40;;;;;;5051162;28;20394;-84
2022/03/31 09:10:37;;;;;;;123.70;17.45;;;5.50;93.70;;;;;;5066177;28;20715;-86
2022/03/31 09:13:16;;;;;;;7.82;4.95;;;5.60;93.30;;;;;;5037847;28;20407;-88
2022/03/31 09:15:57;;;;;;;9.18;4.68;;;6.00;92.60;;;;;;5053492;28;20430;-85
2022/03/31 09:18:24;;;;;;;11.27;4.60;;;6.00;92.30;;;;;;5067036;28;20517;-87
2022/03/31 09:20:55;;;;;;;8.63;4.57;;;6.10;92.30;;;;;;5067336;28;20376;-84
2022/03/31 09:23:23;;;;;;;8.90;4.47;;;6.10;92.40;;;;;;5052100;28;20418;-86
2022/03/31 09:25:51;;;;;;;56.97;9.05;;;6.20;92.00;;;;;;5051240;28;20376;-83
2022/03/31 09:28:22;;;;;;;13.63;4.40;;;6.10;92.40;;;;;;5047348;28;20442;-86
2022/03/31 09:30:52;;;;;;;10.93;5.00;;;6.50;92.30;;;;;;5051341;28;20376;-86
2022/03/31 09:33:28;;;;;;;7.07;4.95;;;6.50;91.50;;;;;;5052953;28;20387;-89
2022/03/31 09:36:32;;;;;;;109.82;15.38;;;6.50;90.90;;;;;;5057127;28;20414;-85
2022/03/31 09:39:02;;;;;;;7.18;4.40;;;6.30;91.80;;;;;;5052294;28;20765;-85
2022/03/31 09:41:31;;;;;;;9.75;5.10;;;6.40;91.60;;;;;;5055718;28;20387;-87
2022/03/31 09:44:05;;;;;;;8.10;4.85;;;6.50;91.50;;;;;;5054428;28;20383;-87
2022/03/31 09:46:38;;;;;;;7.43;4.82;;;6.20;91.60;;;;;;5055007;28;20438;-86
2022/03/31 09:49:27;;;;;;;48.83;8.37;;;6.30;91.70;;;;;;5056076;28;20396;-87
2022/03/31 09:51:59;;;;;;;7.72;4.78;;;6.40;91.60;;;;;;5068246;28;20443;-85
2022/03/31 09:54:27;;;;;;;9.88;4.35;;;6.70;91.60;;;;;;5059265;28;20474;-87
2022/03/31 09:56:56;;;;;;;10.38;5.05;;;7.00;91.50;;;;;;5056723;28;20383;-87
2022/03/31 09:59:40;;;;;;;8.50;4.68;;;7.10;90.90;;;;;;5076816;28;20415;-85
2022/03/31 10:02:07;;;;;;;9.80;5.22;;;7.20;90.90;;;;;;5072946;28;20380;-87
2022/03/31 10:04:34;;;;;;;58.72;8.80;;;7.20;91.00;;;;;;5074981;28;20387;-84
2022/03/31 10:07:02;;;;;;;50.97;8.07;;;7.20;91.00;;;;;;5076265;28;20467;-84
2022/03/31 10:09:32;;;;;;;16.35;5.95;;;;;;;;;;5072502;28;20388;-85
2022/03/31 10:12:05;;;;;;;10.25;4.97;;;;;;;;;;5058023;28;20379;-86
2022/03/31 10:14:40;;;;;;;16.92;5.07;;;;;;;;;;5053507;28;20393;-85
2022/03/31 10:17:11;;;;;;;7.75;4.45;;;;;;;;;;5042124;28;20382;-88
2022/03/31 10:19:37;;;;;;;8.23;4.82;;;;;;;;;;5045554;28;20770;-86
2022/03/31 10:22:04;;;;;;;5.88;4.30;;;;;;;;;;5039766;28;20387;-84
2022/03/31 10:24:46;;;;;;;7.57;4.20;;;;;;;;;;5039389;28;20396;-86
2022/03/31 10:27:25;;;;;;;49.58;8.52;;;;;;;;;;5043985;28;20389;-84
2022/03/31 10:29:52;;;;;;;7.13;4.60;;;;;;;;;;5040768;28;20418;-86
2022/03/31 10:32:18;;;;;;;19.17;5.97;;;;;;;;;;5041848;28;20369;-85
2022/03/31 10:34:48;;;;;;;7.65;4.35;;;;;;;;;;5043724;28;20379;-85
2022/03/31 10:37:14;;;;;;;11.10;5.03;;;;;;;;;;5040750;28;20464;-87
2022/03/31 10:39:50;;;;;;;10.98;4.60;;;;;;;;;;5044902;28;20410;-87
2022/03/31 10:42:16;;;;;;;9.52;4.50;;;;;;;;;;5040691;28;20425;-85
2022/03/31 10:44:44;;;;;;;11.82;4.90;;;;;;;;;;5045667;28;20746;-87
2022/03/31 10:47:10;;;;;;;8.07;4.15;;;;;;;;;;5040440;28;20385;-86
2022/03/31 10:49:37;;;;;;;6.85;4.30;;;;;;;;;;5041130;28;20383;-85
2022/03/31 10:52:19;;;;;;;28.53;6.17;;;;;;;;;;5041751;28;20743;-84
2022/03/31 10:54:46;;;;;;;8.38;4.60;;;;;;;;;;5041454;28;20396;-84
2022/03/31 10:57:15;;;;;;;8.35;4.32;;;;;;;;;;5041694;28;20947;-85
2022/03/31 10:59:42;;;;;;;7.05;4.47;;;;;;;;;;5045496;28;20413;-84
2022/03/31 11:02:22;;;;;;;18.48;5.22;;;;;;;;;;5044951;28;20384;-84
2022/03/31 11:04:49;;;;;;;11.10;4.43;;;;;;;;;;5042648;28;20436;-85
2022/03/31 11:07:20;;;;;;;6.60;4.47;;;;;;;;;;5045464;28;20393;-85
2022/03/31 11:09:48;;;;;;;7.15;4.45;;;;;;;;;;5044162;28;20412;-83
2022/03/31 11:12:22;;;;;;;7.93;4.85;;;;;;;;;;5039809;28;20396;-86
2022/03/31 11:15:00;;;;;;;6.75;4.30;;;;;;;;;;5043747;28;20454;-85
2022/03/31 11:17:27;;;;;;;9.30;4.57;;;;;;;;;;5039862;28;20396;-85
2022/03/31 11:19:55;;;;;;;8.00;4.35;;;;;;;;;;5041296;28;20404;-87
2022/03/31 11:22:22;;;;;;;12.88;4.70;;;;;;;;;;5042778;28;20456;-86
2022/03/31 11:24:53;;;;;;;13.50;5.20;;;;;;;;;;5043389;28;20388;-87
2022/03/31 11:27:36;;;;;;;10.23;4.47;;;;;;;;;;5044407;28;20377;-84
2022/03/31 11:30:04;;;;;;;6.40;4.33;;;;;;;;;;5048919;28;20387;-83
2022/03/31 11:32:35;;;;;;;13.82;4.70;;;;;;;;;;5055560;28;20445;-83
2022/03/31 11:35:10;;;;;;;7.93;4.70;;;;;;;;;;5052410;28;20390;-85
2022/03/31 11:38:02;;;;;;;59.45;9.15;;;;;;;;;;5055792;28;20400;-84
2022/03/31 11:40:45;;;;;;;8.18;4.38;;;;;;;;;;5043733;28;20413;-83
2022/03/31 11:43:12;;;;;;;9.30;4.15;;;;;;;;;;5057677;28;21158;-86
2022/03/31 11:45:45;;;;;;;6.75;4.40;;;;;;;;;;5052251;28;20386;-85
2022/03/31 11:48:15;;;;;;;9.95;5.05;;;;;;;;;;5048123;28;20398;-86
2022/03/31 11:51:00;;;;;;;8.73;4.95;;;;;;;;;;5077488;28;20403;-86
2022/03/31 11:53:54;;;;;;;6.72;4.10;;;;;;;;;;5047883;28;20834;-84
2022/03/31 11:56:29;;;;;;;6.25;4.43;;;;;;;;;;5050150;28;20869;-86
2022/03/31 11:58:57;;;;;;;9.38;5.10;;;;;;;;;;5053809;28;20416;-81
2022/03/31 12:01:55;;;;;;;31.25;7.55;;;;;;;;;;5066623;28;20396;-84
2022/03/31 12:04:31;;;;;;;10.00;5.10;;;;;;;;;;5065494;28;20411;-85
2022/03/31 12:07:00;;;;;;;5.90;4.95;;;;;;;;;;5055158;28;20469;-85
2022/03/31 12:09:28;;;;;;;57.22;11.05;;;;;;;;;;5075187;28;20909;-86
2022/03/31 12:11:56;;;;;;;10.20;5.00;;;;;;;;;;5059160;28;20379;-87
2022/03/31 12:14:22;;;;;;;10.30;5.18;;;;;;;;;;5047234;28;20385;-85
2022/03/31 12:16:52;;;;;;;10.40;4.80;;;;;;;;;;5039354;28;20490;-87
2022/03/31 12:19:19;;;;;;;8.07;4.72;;;;;;;;;;5038825;28;20405;-84
2022/03/31 12:22:04;;;;;;;22.98;5.95;;;;;;;;;;5045599;28;20380;-82
2022/03/31 12:24:30;;;;;;;9.35;4.47;;;;;;;;;;5056720;28;20415;-81
2022/03/31 12:26:57;;;;;;;5.72;4.90;;;;;;;;;;5063374;28;20376;-84
2022/03/31 12:29:24;;;;;;;151.60;19.33;;;;;;;;;;5060241;28;20458;-87
2022/03/31 12:32:09;;;;;;;9.55;5.15;;;;;;;;;;5048386;28;20402;-85
2022/03/31 12:34:36;;;;;;;9.13;4.60;;;;;;;;;;5058844;28;20893;-86
2022/03/31 12:37:02;;;;;;;11.90;4.85;;;;;;;;;;5061872;28;20392;-85
2022/03/31 12:39:28;;;;;;;10.88;5.50;;;;;;;;;;5064061;28;20411;-86
2022/03/31 12:41:55;;;;;;;9.00;4.75;;;;;;;;;;5046716;28;20384;-84
2022/03/31 12:44:24;;;;;;;11.68;5.07;;;9.40;79.80;;;;;;5066623;28;20392;-87
2022/03/31 12:47:01;;;;;;;11.15;5.32;;;9.40;80.00;;;;;;5062675;28;20414;-87
2022/03/31 12:49:32;;;;;;;10.77;4.93;;;9.20;79.60;;;;;;5061064;28;20380;-89
2022/03/31 12:52:01;;;;;;;7.18;4.80;;;9.20;79.40;;;;;;5058264;28;20407;-89
2022/03/31 12:54:47;;;;;;;10.77;5.22;;;9.30;80.40;;;;;;5059467;28;20410;-84
2022/03/31 12:57:21;;;;;;;10.68;4.57;;;9.30;80.90;;;;;;5042583;28;20388;-84
2022/03/31 13:00:01;;;;;;;13.43;4.90;;;9.60;81.00;;;;;;5040580;28;20409;-87
2022/03/31 13:02:27;;;;;;;14.10;5.32;;;9.70;78.10;;;;;;5042486;28;20385;-88
2022/03/31 13:04:52;;;;;;;17.33;5.90;;;9.80;78.30;;;;;;5039523;28;20409;-88
2022/03/31 13:07:27;;;;;;;9.07;4.55;;;9.70;78.10;;;;;;5041942;28;20473;-89
2022/03/31 13:09:55;;;;;;;9.10;4.88;;;9.60;78.30;;;;;;5042981;28;20588;-85
2022/03/31 13:12:21;;;;;;;7.38;4.28;;;9.60;78.80;;;;;;5043139;28;20377;-87
2022/03/31 13:14:47;;;;;;;6.13;4.30;;;9.60;77.50;;;;;;5042780;28;20381;-86
2022/03/31 13:17:15;;;;;;;44.95;7.03;;;;;;;;;;5046668;28;20378;-87
2022/03/31 13:19:42;;;;;;;6.07;4.50;;;;;;;;;;5044571;28;20516;-86
2022/03/31 13:22:11;;;;;;;6.70;4.47;;;9.00;78.50;;;;;;5047425;28;20411;-88